Terminal Aerodrome Forecast
Issued by NWS

Home | Current Version | Previous Version | Graphics & Text | Print | Product List | Glossary On
Versions: 1 2 3 4 5 6 7 8 9 10 11 12 13 14 15 16 17 18 19
341
FTUS43 KMPX 271617 AAA
TAFAXN
TAF AMD
KAXN 271617Z 2716/2812 31015G24KT P6SM SCT020
     FM271730 33018G26KT P6SM SCT015 BKN025
     FM272300 34012KT P6SM SCT060
     FM280300 36007KT P6SM SKC=

USA.gov is the U.S. government's official web portal to all federal, state and local government web resources and services.